Time;durP1;ratioP1;P1;durP2;ratioP2;P2;SDS_P1;SDS_P2;PMS_P1;PMS_P2;Temp;Humidity;BMP_temperature;BMP_pressure;BME280_temperature;BME280_humidity;BME280_pressure;Samples;Min_cycle;Max_cycle;Signal;HPM_P1;HPM_P2
2023/10/05 00:02:08;;;;;;;4.78;3.00;;;10.60;94.60;;;;;;5081651;28;20024;-88
2023/10/05 00:04:45;;;;;;;5.85;2.42;;;10.60;94.70;;;;;;5091087;28;20024;-88
2023/10/05 00:07:26;;;;;;;7.07;2.40;;;10.50;94.80;;;;;;5072495;28;20051;-88
2023/10/05 00:09:52;;;;;;;5.18;2.35;;;10.50;94.90;;;;;;5073320;28;20012;-88
2023/10/05 00:12:22;;;;;;;5.03;2.47;;;10.50;94.90;;;;;;5074058;28;20090;-88
2023/10/05 00:15:02;;;;;;;5.72;2.75;;;10.40;95.00;;;;;;5074196;28;20029;-87
2023/10/05 00:17:29;;;;;;;5.55;2.45;;;10.40;95.20;;;;;;5077102;28;20096;-86
2023/10/05 00:19:55;;;;;;;5.70;1.90;;;10.40;95.30;;;;;;5073950;28;20119;-88
2023/10/05 00:22:21;;;;;;;6.53;2.58;;;10.40;95.40;;;;;;5092320;28;20024;-87
2023/10/05 00:24:48;;;;;;;5.38;2.45;;;10.40;95.40;;;;;;5095920;28;20053;-86
2023/10/05 00:27:15;;;;;;;7.25;3.17;;;10.40;95.40;;;;;;5075575;28;20073;-87
2023/10/05 00:29:41;;;;;;;4.38;2.75;;;10.40;95.40;;;;;;5084621;28;20024;-88
2023/10/05 00:32:34;;;;;;;7.85;2.50;;;10.40;95.50;;;;;;5083092;28;20024;-87
2023/10/05 00:37:45;;;;;;;4.15;2.03;;;10.30;95.60;;;;;;5096890;28;20046;-88
2023/10/05 00:43:12;;;;;;;6.30;2.30;;;10.30;95.80;;;;;;5093503;28;20038;-88
2023/10/05 00:45:44;;;;;;;5.95;2.60;;;10.20;95.80;;;;;;5092657;28;20024;-87
2023/10/05 00:48:20;;;;;;;5.68;2.20;;;10.20;95.90;;;;;;5080593;28;20034;-87
2023/10/05 00:50:51;;;;;;;4.50;2.10;;;10.20;96.00;;;;;;5103496;28;20031;-88
2023/10/05 00:53:19;;;;;;;3.72;2.58;;;10.10;96.10;;;;;;5116775;28;20016;-88
2023/10/05 00:55:52;;;;;;;6.50;2.88;;;10.10;96.10;;;;;;5100214;28;20109;-88
2023/10/05 00:58:17;;;;;;;6.80;2.42;;;10.10;96.30;;;;;;5082351;28;20032;-89
2023/10/05 01:00:50;;;;;;;5.80;2.38;;;10.10;96.30;;;;;;5098286;28;20028;-89
2023/10/05 01:03:22;;;;;;;5.15;2.15;;;10.10;96.40;;;;;;5098259;28;20024;-88
2023/10/05 01:06:03;;;;;;;8.70;2.75;;;10.10;96.50;;;;;;5084547;28;20103;-89
2023/10/05 01:08:31;;;;;;;6.03;2.53;;;10.00;96.60;;;;;;5073939;28;20048;-88
2023/10/05 01:11:01;;;;;;;6.50;2.78;;;10.00;96.60;;;;;;5077347;28;20032;-89
2023/10/05 01:13:34;;;;;;;4.13;2.72;;;10.00;96.70;;;;;;5095106;28;20054;-90
2023/10/05 01:16:15;;;;;;;4.75;3.03;;;10.00;96.90;;;;;;5061839;28;20019;-87
2023/10/05 01:18:41;;;;;;;7.85;2.55;;;10.00;96.90;;;;;;5082171;28;20389;-87
2023/10/05 01:21:09;;;;;;;4.35;2.10;;;10.00;97.00;;;;;;5085355;28;20054;-89
2023/10/05 01:23:38;;;;;;;9.00;2.50;;;10.00;97.00;;;;;;5097095;28;20027;-90
2023/10/05 01:26:10;;;;;;;5.45;2.38;;;10.00;97.00;;;;;;5093213;28;20051;-90
2023/10/05 01:28:37;;;;;;;6.25;2.65;;;10.00;97.10;;;;;;5069360;28;20043;-89
2023/10/05 01:31:07;;;;;;;7.30;3.05;;;10.00;97.10;;;;;;5088065;28;20027;-88
2023/10/05 01:33:34;;;;;;;6.05;2.20;;;10.00;97.10;;;;;;5084178;28;20028;-89
2023/10/05 01:35:59;;;;;;;6.60;2.35;;;10.00;97.10;;;;;;5075707;28;20025;-87
2023/10/05 01:38:27;;;;;;;8.15;2.72;;;9.90;97.20;;;;;;5074310;28;20047;-89
2023/10/05 01:40:58;;;;;;;5.47;2.03;;;10.00;97.30;;;;;;5081326;28;20031;-89
2023/10/05 01:43:24;;;;;;;3.25;2.08;;;9.90;97.30;;;;;;5107425;28;20057;-89
2023/10/05 01:45:50;;;;;;;5.65;2.67;;;9.90;97.30;;;;;;5101392;28;20033;-86
2023/10/05 01:48:18;;;;;;;5.07;2.70;;;9.90;97.30;;;;;;5079122;28;20043;-89
2023/10/05 01:50:44;;;;;;;7.82;2.67;;;9.90;97.40;;;;;;5080288;28;20021;-91
2023/10/05 01:53:17;;;;;;;4.32;2.65;;;9.90;97.50;;;;;;5092046;28;20028;-92
2023/10/05 01:55:49;;;;;;;6.32;1.75;;;9.90;97.60;;;;;;5081831;28;20471;-93
2023/10/05 01:58:22;;;;;;;8.73;2.45;;;9.80;97.60;;;;;;5077979;28;20085;-91
2023/10/05 02:00:48;;;;;;;3.78;2.30;;;9.80;97.60;;;;;;5092873;28;20097;-92
2023/10/05 02:03:14;;;;;;;5.53;2.45;;;9.80;97.80;;;;;;5077945;28;20032;-89
2023/10/05 02:05:39;;;;;;;4.53;2.88;;;9.80;97.90;;;;;;5074500;28;20075;-92
2023/10/05 02:08:06;;;;;;;8.60;2.50;;;9.80;97.90;;;;;;5071271;28;20147;-91
2023/10/05 02:10:39;;;;;;;5.15;2.88;;;9.80;98.00;;;;;;5077539;28;20023;-91
2023/10/05 02:13:12;;;;;;;6.38;2.65;;;9.80;98.10;;;;;;5086595;28;20509;-92
2023/10/05 02:15:39;;;;;;;4.40;2.28;;;9.80;98.20;;;;;;5098970;28;20050;-90
2023/10/05 02:18:18;;;;;;;5.15;2.45;;;9.90;98.10;;;;;;5076304;28;20108;-89
2023/10/05 02:20:45;;;;;;;4.80;2.15;;;9.90;98.10;;;;;;5085059;28;20036;-91
2023/10/05 02:23:24;;;;;;;;;;;9.80;98.10;;;;;;5103075;28;20107;-91
2023/10/05 02:26:07;;;;;;;5.15;2.63;;;9.80;97.90;;;;;;5113408;28;19910;-90
2023/10/05 02:28:33;;;;;;;5.75;2.67;;;9.60;98.10;;;;;;5095169;28;20043;-87
2023/10/05 02:31:00;;;;;;;3.60;2.65;;;9.60;98.30;;;;;;5074166;28;20008;-87
2023/10/05 02:33:28;;;;;;;6.67;2.57;;;9.60;98.50;;;;;;5074054;28;20116;-87
2023/10/05 02:36:09;;;;;;;5.90;2.65;;;9.60;98.60;;;;;;5095976;28;20024;-90
2023/10/05 02:38:35;;;;;;;8.70;2.47;;;9.60;98.80;;;;;;5095745;28;20028;-88
2023/10/05 02:41:04;;;;;;;5.13;2.50;;;9.60;98.80;;;;;;5096824;28;20027;-87
2023/10/05 02:43:38;;;;;;;3.97;2.38;;;9.60;98.90;;;;;;5116236;28;20028;-87
2023/10/05 02:46:11;;;;;;;11.00;3.33;;;9.60;99.00;;;;;;5087851;28;20054;-86
2023/10/05 02:48:41;;;;;;;7.28;2.97;;;9.60;99.10;;;;;;5095637;28;20035;-87
2023/10/05 02:51:10;;;;;;;9.70;3.00;;;9.60;99.20;;;;;;5096287;28;20034;-86
2023/10/05 02:53:46;;;;;;;5.22;2.88;;;9.60;99.20;;;;;;5100309;28;20020;-86
2023/10/05 02:56:20;;;;;;;9.95;3.45;;;9.60;99.30;;;;;;5101402;28;20016;-87
2023/10/05 02:58:54;;;;;;;4.78;2.60;;;9.60;99.40;;;;;;5085229;28;20140;-87
2023/10/05 03:01:22;;;;;;;4.65;2.88;;;9.50;99.50;;;;;;5083811;28;20022;-86
2023/10/05 03:03:48;;;;;;;5.80;2.20;;;9.50;99.50;;;;;;5098860;28;20028;-88
2023/10/05 03:06:15;;;;;;;4.50;2.63;;;9.50;99.50;;;;;;5101625;28;20048;-88
2023/10/05 03:08:49;;;;;;;6.72;2.80;;;9.50;99.60;;;;;;5090241;28;20039;-88
2023/10/05 03:11:18;;;;;;;6.15;3.08;;;9.50;99.70;;;;;;5093413;28;20105;-86
2023/10/05 03:13:44;;;;;;;5.70;2.35;;;9.50;99.70;;;;;;5091420;28;20385;-87
2023/10/05 03:16:10;;;;;;;5.88;2.95;;;9.40;99.80;;;;;;5077180;28;20028;-88
2023/10/05 03:18:43;;;;;;;5.00;3.22;;;9.40;99.80;;;;;;5089263;28;20024;-87
2023/10/05 03:21:12;;;;;;;9.55;3.80;;;9.40;99.90;;;;;;5086239;28;20035;-86
2023/10/05 03:23:40;;;;;;;5.20;2.55;;;9.40;99.90;;;;;;5090306;28;20035;-86
2023/10/05 03:26:11;;;;;;;5.30;2.72;;;9.40;99.90;;;;;;5088713;28;20024;-88
2023/10/05 03:28:37;;;;;;;5.80;2.67;;;9.40;99.90;;;;;;5107816;28;20028;-87
2023/10/05 03:31:19;;;;;;;6.03;2.80;;;9.40;99.90;;;;;;5081134;28;20028;-88
2023/10/05 03:33:46;;;;;;;6.15;2.42;;;9.40;99.90;;;;;;5073037;28;20024;-87
2023/10/05 03:36:15;;;;;;;7.68;2.85;;;9.40;99.90;;;;;;5095884;28;20437;-88
2023/10/05 03:38:42;;;;;;;5.65;2.53;;;9.40;99.90;;;;;;5084323;28;20021;-86
2023/10/05 03:41:15;;;;;;;9.52;2.72;;;9.40;99.90;;;;;;5082453;28;20032;-85
2023/10/05 03:43:43;;;;;;;5.55;2.85;;;9.40;99.90;;;;;;5089162;28;20125;-87
2023/10/05 03:46:09;;;;;;;10.52;3.33;;;9.40;99.90;;;;;;5099768;28;20031;-88
2023/10/05 03:48:38;;;;;;;5.80;2.70;;;9.40;99.90;;;;;;5073830;28;20111;-86
2023/10/05 03:51:15;;;;;;;7.32;3.28;;;9.40;99.90;;;;;;5078182;28;20037;-86
2023/10/05 03:53:43;;;;;;;8.02;3.75;;;9.40;99.90;;;;;;5074467;28;20032;-85
2023/10/05 03:56:12;;;;;;;10.18;3.42;;;9.40;99.90;;;;;;5086467;28;20382;-85
2023/10/05 03:58:39;;;;;;;7.00;2.83;;;9.40;99.90;;;;;;5083346;28;20024;-85
2023/10/05 04:01:06;;;;;;;9.68;2.90;;;9.40;99.90;;;;;;5087133;28;20040;-86
2023/10/05 04:03:33;;;;;;;8.30;2.95;;;9.50;99.90;;;;;;5103873;28;20111;-86
2023/10/05 04:05:59;;;;;;;6.40;3.20;;;9.50;99.90;;;;;;5081472;28;20039;-86
2023/10/05 04:08:27;;;;;;;7.82;2.90;;;9.50;99.90;;;;;;5079607;28;20037;-86
2023/10/05 04:10:54;;;;;;;8.52;2.95;;;9.60;99.90;;;;;;5083262;28;20043;-86
2023/10/05 04:13:22;;;;;;;9.80;3.03;;;9.60;99.90;;;;;;5093652;28;20020;-87
2023/10/05 04:15:47;;;;;;;;;;;9.60;99.90;;;;;;5094634;28;20472;-86
2023/10/05 04:18:15;;;;;;;9.80;2.85;;;9.70;99.90;;;;;;5095046;28;20014;-87
2023/10/05 04:20:44;;;;;;;11.43;3.30;;;9.80;99.90;;;;;;5091914;28;20013;-85
2023/10/05 04:23:15;;;;;;;10.50;3.42;;;9.90;99.90;;;;;;5076822;28;20050;-86
2023/10/05 04:25:41;;;;;;;9.40;3.38;;;10.00;99.90;;;;;;5097469;28;20016;-85
2023/10/05 04:28:07;;;;;;;6.97;3.30;;;10.10;99.80;;;;;;5098070;28;20108;-85
2023/10/05 04:30:33;;;;;;;6.50;3.22;;;10.10;99.60;;;;;;5113810;28;20024;-86
2023/10/05 04:32:59;;;;;;;4.75;3.30;;;10.10;99.40;;;;;;5113398;28;20046;-86
2023/10/05 04:35:29;;;;;;;4.75;3.13;;;10.20;99.50;;;;;;5095739;28;20020;-86
2023/10/05 04:37:56;;;;;;;4.95;3.15;;;10.40;99.40;;;;;;5093365;28;20536;-85
2023/10/05 04:40:24;;;;;;;9.18;3.30;;;10.50;99.20;;;;;;5092512;28;20031;-86
2023/10/05 04:43:01;;;;;;;5.97;2.90;;;10.60;98.90;;;;;;5086306;28;20138;-85
2023/10/05 04:45:28;;;;;;;4.22;3.00;;;10.60;98.70;;;;;;5072287;28;20032;-85
2023/10/05 04:47:58;;;;;;;4.20;2.80;;;10.70;98.50;;;;;;5093630;28;20024;-84
2023/10/05 04:50:25;;;;;;;4.88;3.17;;;10.70;98.40;;;;;;5081314;28;20031;-84
2023/10/05 04:52:52;;;;;;;10.23;3.13;;;10.70;98.40;;;;;;5086044;28;20017;-87
2023/10/05 04:55:22;;;;;;;5.07;3.40;;;10.80;98.40;;;;;;5100607;28;20029;-87
2023/10/05 05:08:34;;;;;;;7.82;4.05;;;11.30;97.30;;;;;;5077090;28;20124;-87
2023/10/05 05:11:00;;;;;;;4.68;3.30;;;11.40;97.20;;;;;;5082925;28;20076;-86
2023/10/05 05:13:27;;;;;;;7.07;3.58;;;11.50;97.00;;;;;;5071065;28;20440;-85
2023/10/05 05:15:54;;;;;;;7.30;3.38;;;11.50;96.90;;;;;;5055561;28;20044;-84
2023/10/05 05:18:21;;;;;;;5.47;3.03;;;11.60;96.80;;;;;;5071362;28;20062;-84
2023/10/05 05:20:47;;;;;;;9.27;3.17;;;11.60;96.50;;;;;;5077671;28;20028;-86
2023/10/05 05:23:16;;;;;;;6.60;2.88;;;11.70;96.40;;;;;;5068888;28;20037;-84
2023/10/05 05:25:42;;;;;;;10.35;3.33;;;11.60;96.10;;;;;;5070111;28;20035;-86
2023/10/05 05:28:09;;;;;;;4.30;3.20;;;11.60;96.30;;;;;;5049610;28;20048;-85
2023/10/05 05:30:40;;;;;;;8.40;3.85;;;11.60;96.40;;;;;;5070738;28;20021;-85
2023/10/05 05:33:10;;;;;;;5.10;3.03;;;11.60;96.10;;;;;;5049309;28;20132;-85
2023/10/05 05:35:39;;;;;;;6.65;3.75;;;11.60;96.20;;;;;;5061517;28;20050;-86
2023/10/05 05:38:09;;;;;;;9.60;4.00;;;11.70;96.10;;;;;;5071362;28;20078;-87
2023/10/05 05:40:38;;;;;;;7.50;4.07;;;11.70;96.10;;;;;;5038773;28;20029;-88
2023/10/05 05:43:08;;;;;;;8.15;3.33;;;11.70;96.10;;;;;;5057029;28;20025;-86
2023/10/05 05:45:35;;;;;;;6.35;3.33;;;11.80;96.30;;;;;;5073246;28;20029;-85
2023/10/05 05:48:08;;;;;;;7.60;3.17;;;11.90;96.00;;;;;;5083454;28;20056;-86
2023/10/05 05:50:38;;;;;;;6.43;3.50;;;12.10;96.00;;;;;;5082864;28;20077;-87
2023/10/05 05:53:11;;;;;;;8.95;3.60;;;12.30;95.60;;;;;;5064328;28;20045;-85
2023/10/05 05:55:43;;;;;;;6.45;3.60;;;12.30;95.10;;;;;;5079101;28;20052;-87
2023/10/05 05:58:14;;;;;;;7.47;3.50;;;12.30;95.00;;;;;;5079445;28;20025;-85
2023/10/05 06:00:40;;;;;;;6.05;2.92;;;12.30;95.20;;;;;;5081211;28;20025;-86
2023/10/05 06:03:11;;;;;;;8.88;4.15;;;12.40;95.00;;;;;;5078579;28;20105;-86
2023/10/05 06:05:36;;;;;;;9.07;3.55;;;12.50;94.90;;;;;;5074484;28;20246;-86
2023/10/05 06:08:03;;;;;;;8.35;3.55;;;12.50;94.60;;;;;;5077719;28;20454;-85
2023/10/05 06:10:35;;;;;;;9.35;3.35;;;12.50;94.80;;;;;;5070452;28;20733;-85
2023/10/05 06:13:01;;;;;;;7.82;3.55;;;12.50;94.80;;;;;;5073557;28;20028;-85
2023/10/05 06:15:29;;;;;;;8.55;3.97;;;12.60;94.70;;;;;;5075868;28;20466;-87
2023/10/05 06:17:55;;;;;;;10.18;3.80;;;12.70;94.50;;;;;;5079437;28;20032;-89
2023/10/05 06:20:21;;;;;;;9.75;3.80;;;12.80;94.40;;;;;;5066901;28;20025;-88
2023/10/05 06:22:47;;;;;;;7.25;3.85;;;12.90;94.30;;;;;;5079560;28;20067;-86
2023/10/05 06:25:17;;;;;;;9.55;3.60;;;13.00;94.20;;;;;;5076363;28;20025;-87
2023/10/05 06:27:44;;;;;;;8.68;3.80;;;13.10;94.00;;;;;;5078556;28;20512;-86
2023/10/05 06:30:14;;;;;;;9.73;4.10;;;13.20;93.80;;;;;;5074312;28;20024;-88
2023/10/05 06:32:40;;;;;;;7.57;3.65;;;13.30;93.60;;;;;;5070117;28;20029;-87
2023/10/05 06:35:09;;;;;;;6.20;4.20;;;13.30;93.30;;;;;;5076593;28;20024;-87
2023/10/05 06:37:39;;;;;;;8.15;4.13;;;13.40;93.30;;;;;;5067830;28;20016;-87
2023/10/05 06:40:21;;;;;;;10.02;3.72;;;13.50;93.40;;;;;;5076072;28;20020;-84
2023/10/05 06:42:51;;;;;;;8.13;3.88;;;13.70;93.00;;;;;;5075389;28;20024;-83
2023/10/05 06:45:23;;;;;;;9.55;3.40;;;13.80;92.70;;;;;;5068565;28;20028;-85
2023/10/05 06:47:50;;;;;;;6.07;3.47;;;13.90;92.20;;;;;;5074846;28;20035;-84
2023/10/05 06:50:16;;;;;;;;;;;13.70;92.10;;;;;;5073730;28;20392;-83
2023/10/05 06:52:44;;;;;;;9.63;3.53;;;13.70;92.30;;;;;;5075964;28;19904;-84
2023/10/05 06:55:11;;;;;;;;;;;13.70;92.20;;;;;;5073957;28;20016;-86
2023/10/05 06:57:44;;;;;;;8.80;3.47;;;13.80;92.20;;;;;;5065910;28;19912;-87
2023/10/05 07:00:16;;;;;;;8.57;4.05;;;13.60;92.00;;;;;;5069628;28;20101;-86
2023/10/05 07:02:45;;;;;;;9.57;3.63;;;13.50;91.90;;;;;;5068973;28;20385;-86
2023/10/05 07:05:12;;;;;;;11.32;4.13;;;13.50;92.50;;;;;;5076142;28;20023;-84
2023/10/05 07:07:38;;;;;;;8.45;3.95;;;13.80;92.40;;;;;;5073451;28;20044;-86
2023/10/05 07:10:09;;;;;;;7.07;3.58;;;14.00;91.60;;;;;;5086192;28;20107;-85
2023/10/05 07:12:38;;;;;;;10.98;4.38;;;14.10;91.40;;;;;;5082924;28;20489;-85
2023/10/05 07:15:05;;;;;;;6.85;4.25;;;14.10;91.20;;;;;;5073650;28;20500;-85
2023/10/05 07:17:33;;;;;;;9.90;3.78;;;14.00;91.10;;;;;;5073204;28;20048;-86
2023/10/05 07:19:59;;;;;;;10.35;4.15;;;14.00;91.30;;;;;;5065981;28;20028;-84
2023/10/05 07:22:25;;;;;;;13.80;5.25;;;14.20;91.20;;;;;;5073644;28;20020;-85
2023/10/05 07:24:51;;;;;;;10.13;4.45;;;14.40;90.80;;;;;;5073906;28;20016;-83
2023/10/05 07:27:18;;;;;;;8.10;3.67;;;14.40;90.10;;;;;;5073694;28;20016;-85
2023/10/05 07:29:45;;;;;;;11.43;4.05;;;14.10;90.10;;;;;;5062468;28;20020;-83
2023/10/05 07:32:12;;;;;;;8.52;4.03;;;14.00;90.60;;;;;;5072281;28;20100;-86
2023/10/05 07:34:40;;;;;;;7.72;4.13;;;14.00;90.80;;;;;;5073631;28;20497;-82
2023/10/05 07:37:10;;;;;;;9.52;4.20;;;14.10;90.80;;;;;;5073133;28;20033;-84
2023/10/05 07:39:42;;;;;;;8.77;4.22;;;14.10;90.60;;;;;;5073249;28;20020;-83
2023/10/05 07:42:11;;;;;;;9.23;4.00;;;14.10;90.60;;;;;;5074836;28;20028;-84
2023/10/05 07:44:37;;;;;;;13.35;4.78;;;14.10;90.50;;;;;;5070859;28;20030;-84
2023/10/05 07:47:05;;;;;;;14.90;4.15;;;14.10;90.60;;;;;;5072590;28;20136;-85
2023/10/05 07:49:34;;;;;;;9.68;4.00;;;13.90;90.30;;;;;;5072745;28;20021;-86
2023/10/05 07:52:05;;;;;;;7.70;3.88;;;13.80;90.60;;;;;;5073310;28;20373;-85
2023/10/05 07:54:34;;;;;;;8.82;4.40;;;13.90;90.50;;;;;;5071637;28;20021;-84
2023/10/05 07:57:07;;;;;;;11.48;4.80;;;13.90;90.50;;;;;;5068081;28;20462;-85
2023/10/05 07:59:33;;;;;;;8.68;4.30;;;14.10;90.50;;;;;;5070946;28;20025;-83
2023/10/05 08:01:59;;;;;;;8.95;4.18;;;14.30;90.20;;;;;;5073543;28;20107;-86
2023/10/05 08:04:25;;;;;;;11.95;3.85;;;14.30;90.00;;;;;;5074731;28;20098;-86
2023/10/05 08:06:52;;;;;;;9.68;4.75;;;14.30;89.70;;;;;;5080399;28;20040;-87
2023/10/05 08:09:20;;;;;;;13.57;5.45;;;14.30;89.60;;;;;;5104244;28;20024;-86
2023/10/05 08:11:47;;;;;;;8.18;2.83;;;14.30;89.70;;;;;;5092948;28;20020;-85
2023/10/05 08:14:14;;;;;;;7.30;3.70;;;14.40;89.40;;;;;;5076615;28;20116;-85
2023/10/05 08:16:39;;;;;;;8.32;3.83;;;14.30;88.40;;;;;;5071958;28;20502;-82
2023/10/05 08:19:06;;;;;;;7.40;3.05;;;14.30;88.50;;;;;;5070567;28;20058;-84
2023/10/05 08:21:32;;;;;;;7.40;4.43;;;14.20;88.70;;;;;;5074890;28;20381;-85
2023/10/05 08:23:58;;;;;;;10.27;4.22;;;14.10;89.10;;;;;;5073124;28;20024;-84
2023/10/05 08:26:28;;;;;;;8.85;4.57;;;14.10;89.80;;;;;;5073605;28;20048;-84
2023/10/05 08:28:55;;;;;;;7.22;4.30;;;14.20;89.40;;;;;;5075260;28;20033;-84
2023/10/05 08:31:23;;;;;;;10.90;4.00;;;14.30;88.80;;;;;;5075156;28;20020;-86
2023/10/05 08:34:00;;;;;;;8.85;4.32;;;14.40;88.40;;;;;;5075571;28;20509;-85
2023/10/05 08:36:27;;;;;;;8.90;3.30;;;14.50;87.80;;;;;;5089315;28;20127;-86
2023/10/05 08:38:54;;;;;;;10.40;4.28;;;14.50;86.70;;;;;;5088189;28;20036;-85
2023/10/05 08:41:32;;;;;;;7.00;3.58;;;14.40;87.00;;;;;;5078330;28;20456;-84
2023/10/05 08:44:06;;;;;;;8.13;3.72;;;14.40;87.70;;;;;;5083633;28;20028;-85
2023/10/05 08:46:43;;;;;;;16.80;4.88;;;14.40;87.40;;;;;;5078471;28;20059;-86
2023/10/05 08:49:11;;;;;;;7.27;2.77;;;14.30;87.80;;;;;;5072511;28;20032;-85
2023/10/05 08:51:40;;;;;;;6.90;4.32;;;14.20;86.80;;;;;;5071896;28;20024;-85
2023/10/05 08:54:11;;;;;;;7.85;4.25;;;14.00;87.90;;;;;;5073816;28;20048;-87
2023/10/05 08:56:45;;;;;;;11.57;4.65;;;14.00;88.00;;;;;;5076866;28;20082;-83
2023/10/05 08:59:19;;;;;;;13.77;5.30;;;13.90;88.80;;;;;;5075063;28;20035;-84
2023/10/05 09:01:46;;;;;;;12.05;4.57;;;13.80;90.10;;;;;;5072548;28;20021;-83
2023/10/05 09:06:47;;;;;;;7.60;4.38;;;13.50;91.10;;;;;;5075989;28;20567;-88
2023/10/05 09:09:27;;;;;;;7.85;5.00;;;13.40;91.40;;;;;;5087452;28;20081;-85
2023/10/05 09:11:52;;;;;;;7.95;4.28;;;13.20;92.20;;;;;;5096371;28;20038;-83
2023/10/05 09:14:38;;;;;;;10.52;4.82;;;13.10;92.70;;;;;;5097970;28;20031;-84
2023/10/05 09:17:09;;;;;;;9.23;4.68;;;13.00;93.00;;;;;;5087266;28;20052;-82
2023/10/05 09:19:37;;;;;;;8.15;4.15;;;12.90;93.10;;;;;;5093316;28;20020;-83
2023/10/05 09:22:14;;;;;;;13.00;4.68;;;12.80;93.40;;;;;;5093803;28;20036;-83
2023/10/05 09:24:52;;;;;;;8.57;4.45;;;12.70;93.50;;;;;;5097157;28;20016;-84
2023/10/05 09:27:19;;;;;;;14.07;4.63;;;12.60;93.60;;;;;;5098710;28;20024;-83
2023/10/05 09:29:51;;;;;;;7.55;4.90;;;12.60;93.90;;;;;;5097000;28;20523;-84
2023/10/05 09:32:22;;;;;;;9.98;4.97;;;12.50;94.30;;;;;;5096758;28;20469;-84
2023/10/05 09:34:51;;;;;;;8.90;5.57;;;12.40;94.80;;;;;;5071246;28;20028;-84
2023/10/05 09:37:23;;;;;;;13.00;4.75;;;12.30;95.10;;;;;;5072619;28;20036;-88
2023/10/05 09:39:49;;;;;;;12.48;5.18;;;12.10;95.50;;;;;;5064736;28;20025;-85
2023/10/05 09:42:25;;;;;;;10.60;6.20;;;12.00;96.30;;;;;;5078188;28;20028;-86
2023/10/05 09:44:57;;;;;;;12.07;4.85;;;12.00;97.10;;;;;;5066267;28;20107;-83
2023/10/05 09:47:32;;;;;;;14.57;6.63;;;12.00;97.20;;;;;;5080769;28;20021;-85
2023/10/05 09:50:13;;;;;;;9.13;4.65;;;12.00;97.20;;;;;;5070229;28;20028;-85
2023/10/05 09:52:43;;;;;;;9.32;4.53;;;12.10;97.30;;;;;;5072024;28;20028;-86
2023/10/05 09:55:12;;;;;;;12.50;4.43;;;12.10;96.90;;;;;;5078812;28;20111;-86
2023/10/05 09:57:46;;;;;;;10.93;5.13;;;12.10;96.80;;;;;;5088670;28;20016;-83
2023/10/05 10:00:27;;;;;;;11.40;4.60;;;12.20;96.90;;;;;;5083627;28;20546;-83
2023/10/05 10:03:03;;;;;;;9.23;5.13;;;12.50;96.90;;;;;;5074508;28;20021;-84
2023/10/05 10:05:51;;;;;;;10.85;4.57;;;12.90;96.70;;;;;;5074072;28;20054;-85
2023/10/05 10:08:25;;;;;;;8.73;4.60;;;13.20;96.30;;;;;;5083295;28;20045;-85
2023/10/05 10:11:07;;;;;;;10.63;4.97;;;13.60;95.80;;;;;;5086203;28;20019;-86
2023/10/05 10:13:37;;;;;;;9.38;4.65;;;13.80;95.40;;;;;;5089667;28;20497;-87
2023/10/05 10:16:26;;;;;;;10.60;5.10;;;13.90;94.40;;;;;;5089892;28;20047;-86
2023/10/05 10:18:53;;;;;;;7.22;4.65;;;13.70;94.00;;;;;;5082522;28;20065;-86
2023/10/05 10:21:35;;;;;;;9.13;4.70;;;13.60;94.10;;;;;;5083800;28;20373;-87
2023/10/05 10:24:06;;;;;;;10.40;4.70;;;13.60;94.30;;;;;;5078989;28;20409;-88
2023/10/05 10:27:08;;;;;;;7.78;4.65;;;13.70;94.20;;;;;;5075914;28;20025;-85
2023/10/05 10:29:46;;;;;;;8.30;4.38;;;14.00;94.60;;;;;;5068632;28;20036;-87
2023/10/05 10:32:22;;;;;;;14.45;8.00;;;14.10;94.00;;;;;;5071314;28;20017;-87
2023/10/05 10:35:06;;;;;;;8.37;4.90;;;14.20;93.90;;;;;;5073942;28;20040;-88
2023/10/05 10:37:40;;;;;;;7.20;4.70;;;14.20;93.80;;;;;;5074759;28;20035;-87
2023/10/05 10:40:25;;;;;;;11.27;4.15;;;14.10;93.70;;;;;;5074658;28;20017;-87
2023/10/05 10:45:34;;;;;;;8.55;4.18;;;14.20;93.50;;;;;;5059399;28;20075;-91
2023/10/05 10:48:13;;;;;;;13.27;4.95;;;14.20;92.80;;;;;;5076799;28;20092;-88
2023/10/05 10:50:39;;;;;;;11.23;4.07;;;14.30;92.40;;;;;;5079955;28;20092;-85
2023/10/05 10:53:16;;;;;;;8.65;3.92;;;14.50;92.00;;;;;;5077175;28;20029;-85
2023/10/05 10:56:13;;;;;;;6.43;3.78;;;14.70;91.30;;;;;;5076281;28;20021;-90
2023/10/05 10:58:44;;;;;;;8.27;5.22;;;15.00;90.80;;;;;;5066878;28;20025;-87
2023/10/05 11:01:28;;;;;;;7.90;3.30;;;15.10;90.20;;;;;;5077877;28;21080;-91
2023/10/05 11:03:55;;;;;;;4.80;3.35;;;15.10;89.00;;;;;;5073195;28;20032;-89
2023/10/05 11:06:26;;;;;;;6.65;2.97;;;15.20;89.30;;;;;;5070743;28;20044;-90
2023/10/05 11:08:52;;;;;;;6.75;2.88;;;15.40;88.60;;;;;;5075392;28;20060;-87
2023/10/05 11:11:23;;;;;;;7.17;3.67;;;15.40;86.50;;;;;;5079385;28;20555;-86
2023/10/05 11:13:55;;;;;;;10.15;3.88;;;15.20;86.70;;;;;;5074217;28;20356;-84
2023/10/05 11:16:33;;;;;;;4.85;2.92;;;15.10;87.00;;;;;;5074618;28;20354;-87
2023/10/05 11:19:03;;;;;;;8.10;3.80;;;15.10;87.00;;;;;;5074806;28;20040;-88
2023/10/05 11:21:39;;;;;;;5.82;3.38;;;14.90;88.10;;;;;;5074400;28;20020;-85
2023/10/05 11:24:08;;;;;;;7.43;4.25;;;15.00;87.90;;;;;;5073674;28;20029;-86
2023/10/05 11:29:42;;;;;;;17.20;9.13;;;14.90;87.80;;;;;;5085050;28;20051;-87
2023/10/05 11:32:12;;;;;;;11.68;5.18;;;14.80;88.70;;;;;;5075657;28;20021;-85
2023/10/05 11:34:42;;;;;;;7.93;4.05;;;14.60;89.90;;;;;;5074363;28;20048;-85
2023/10/05 11:37:18;;;;;;;11.75;4.43;;;14.40;90.50;;;;;;5074522;28;20031;-86
2023/10/05 11:39:50;;;;;;;10.40;5.07;;;14.00;91.30;;;;;;5077183;28;20027;-85
2023/10/05 11:42:25;;;;;;;10.05;4.63;;;13.70;92.30;;;;;;5079826;28;20039;-85
2023/10/05 11:44:59;;;;;;;10.27;4.57;;;13.50;93.10;;;;;;5075077;28;20017;-86
2023/10/05 11:47:32;;;;;;;13.27;4.90;;;13.20;93.90;;;;;;5082260;28;20025;-90
2023/10/05 11:50:06;;;;;;;8.43;3.33;;;13.10;94.60;;;;;;5077858;28;20471;-88
2023/10/05 11:52:32;;;;;;;8.13;4.75;;;12.90;95.00;;;;;;5087424;28;20023;-88
2023/10/05 11:54:57;;;;;;;7.50;4.75;;;12.80;95.40;;;;;;5093014;28;20032;-90
2023/10/05 11:57:23;;;;;;;10.85;5.38;;;12.70;95.80;;;;;;5086341;28;20027;-89
2023/10/05 11:59:49;;;;;;;8.88;4.60;;;12.70;96.40;;;;;;5091651;28;20123;-90
2023/10/05 12:02:17;;;;;;;11.35;5.35;;;12.60;96.80;;;;;;5084208;28;20440;-89
2023/10/05 12:04:43;;;;;;;16.75;9.48;;;12.60;97.10;;;;;;5074776;28;20451;-85
2023/10/05 12:07:12;;;;;;;13.02;5.80;;;12.50;97.30;;;;;;5078758;28;20052;-87
2023/10/05 12:09:43;;;;;;;8.98;4.05;;;12.50;97.10;;;;;;5085490;28;20149;-87
2023/10/05 12:12:13;;;;;;;8.95;4.03;;;12.50;96.80;;;;;;5078898;28;20112;-87
2023/10/05 12:14:41;;;;;;;7.13;3.65;;;12.60;96.60;;;;;;5066143;28;20024;-87
2023/10/05 12:17:06;;;;;;;;;;;12.60;96.00;;;;;;5091555;28;20028;-86
2023/10/05 12:19:33;;;;;;;9.93;6.03;;;12.70;95.90;;;;;;5094150;28;19911;-87
2023/10/05 12:22:13;;;;;;;11.60;3.25;;;13.00;95.90;;;;;;5094827;28;20194;-89
2023/10/05 12:24:39;;;;;;;6.22;4.03;;;13.20;95.30;;;;;;5094246;28;20023;-86
2023/10/05 12:27:20;;;;;;;8.43;4.00;;;13.40;95.10;;;;;;5085250;28;20478;-87
2023/10/05 12:29:46;;;;;;;8.07;3.17;;;13.50;94.80;;;;;;5077616;28;20025;-85
2023/10/05 12:32:13;;;;;;;9.85;4.75;;;13.70;94.40;;;;;;5072762;28;20023;-85
2023/10/05 12:34:43;;;;;;;12.93;5.35;;;13.80;93.60;;;;;;5072283;28;20032;-87
2023/10/05 12:37:08;;;;;;;8.98;4.22;;;13.90;93.10;;;;;;5072319;28;20072;-86
2023/10/05 12:39:34;;;;;;;8.60;3.70;;;14.00;92.60;;;;;;5073068;28;20017;-86
2023/10/05 12:42:01;;;;;;;8.23;4.22;;;14.00;92.60;;;;;;5073410;28;20028;-91
2023/10/05 12:44:27;;;;;;;6.85;4.03;;;14.00;92.50;;;;;;5073256;28;20027;-91
2023/10/05 12:46:53;;;;;;;9.13;3.55;;;14.10;92.20;;;;;;5073173;28;20054;-90
2023/10/05 12:49:20;;;;;;;7.10;3.05;;;14.10;91.90;;;;;;5074247;28;20112;-86
2023/10/05 12:51:47;;;;;;;8.93;3.58;;;14.10;91.70;;;;;;5072722;28;20021;-87
2023/10/05 12:54:19;;;;;;;7.82;3.30;;;14.20;91.50;;;;;;5074672;28;20343;-86
2023/10/05 12:56:46;;;;;;;8.27;3.80;;;14.40;91.60;;;;;;5074797;28;20013;-85
2023/10/05 12:59:15;;;;;;;6.22;2.97;;;14.50;91.00;;;;;;5076889;28;20064;-87
2023/10/05 13:01:41;;;;;;;6.43;3.70;;;14.50;90.90;;;;;;5077721;28;20017;-86
2023/10/05 13:04:13;;;;;;;6.85;3.75;;;14.40;90.60;;;;;;5067639;28;20024;-85
2023/10/05 13:06:40;;;;;;;11.05;5.45;;;14.40;90.60;;;;;;5061898;28;20611;-88
2023/10/05 13:09:12;;;;;;;5.03;2.55;;;14.20;90.60;;;;;;5084406;28;20129;-89
2023/10/05 13:11:38;;;;;;;5.38;2.70;;;14.10;90.50;;;;;;5082398;28;20031;-90
2023/10/05 13:14:08;;;;;;;7.60;2.93;;;13.90;90.70;;;;;;5074271;28;20024;-86
2023/10/05 13:16:35;;;;;;;7.47;2.92;;;13.80;90.60;;;;;;5064851;28;20262;-83
2023/10/05 13:19:06;;;;;;;5.83;2.30;;;13.60;90.50;;;;;;5076980;28;20111;-86
2023/10/05 13:21:35;;;;;;;7.28;2.65;;;13.50;90.30;;;;;;5072237;28;20265;-85
2023/10/05 13:24:00;;;;;;;6.78;3.13;;;13.50;90.80;;;;;;5075728;28;20020;-85
2023/10/05 13:26:28;;;;;;;3.60;2.20;;;13.40;90.80;;;;;;5077059;28;20036;-89
2023/10/05 13:28:59;;;;;;;5.80;2.47;;;13.40;90.50;;;;;;5086812;28;20071;-86